createdAt,value
2017-10-17T00:01:57.040Z,87.04
2017-10-17T00:04:25.382Z,87.05
2017-10-17T00:06:53.715Z,87.05
2017-10-17T00:09:22.450Z,87.05
2017-10-17T00:11:50.782Z,87.04
2017-10-17T00:14:19.218Z,87.06
2017-10-17T00:16:47.573Z,87.04
2017-10-17T00:19:15.965Z,87.05
2017-10-17T00:21:44.341Z,87.07
2017-10-17T00:24:12.670Z,87.08
2017-10-17T00:26:41.081Z,87.10
2017-10-17T00:29:09.456Z,87.10
2017-10-17T00:31:37.730Z,87.08
2017-10-17T00:34:06.634Z,87.08
2017-10-17T00:36:34.768Z,87.05
2017-10-17T00:39:07.157Z,87.04
2017-10-17T00:41:35.595Z,87.05
2017-10-17T00:44:03.671Z,87.05
2017-10-17T00:46:32.344Z,87.05
2017-10-17T00:49:00.759Z,87.03
2017-10-17T00:51:29.706Z,87.04
2017-10-17T00:53:59.330Z,87.05
2017-10-17T00:56:27.679Z,87.06
2017-10-17T00:58:55.767Z,87.06
2017-10-17T01:01:24.203Z,87.05
2017-10-17T01:03:52.571Z,87.07
2017-10-17T01:06:20.866Z,87.06
2017-10-17T01:08:49.257Z,87.06
2017-10-17T01:11:17.677Z,87.08
2017-10-17T01:13:46.007Z,87.07
2017-10-17T01:16:14.400Z,87.07
2017-10-17T01:18:42.836Z,87.06
2017-10-17T01:21:12.523Z,87.04
2017-10-17T01:23:45.419Z,87.04
2017-10-17T01:26:22.375Z,87.02
2017-10-17T01:28:57.174Z,87.02
2017-10-17T01:31:25.568Z,87.03
2017-10-17T01:33:54.004Z,87.04
2017-10-17T01:36:22.386Z,87.02
2017-10-17T01:38:50.481Z,87.03
2017-10-17T01:41:18.612Z,87.03
2017-10-17T01:43:46.811Z,87.01
2017-10-17T01:46:15.831Z,87.01
2017-10-17T01:48:46.715Z,87.02
2017-10-17T01:51:16.359Z,87.04
2017-10-17T01:53:47.267Z,87.03
2017-10-17T01:56:17.526Z,87.02
2017-10-17T01:58:45.672Z,87.01
2017-10-17T02:01:13.823Z,87.02
2017-10-17T02:03:42.211Z,87.00
2017-10-17T02:06:10.574Z,87.02
2017-10-17T02:08:38.713Z,87.03
2017-10-17T02:11:06.807Z,87.01
2017-10-17T02:13:35.229Z,86.99
2017-10-17T02:16:03.688Z,87.00
2017-10-17T02:18:33.452Z,87.00
2017-10-17T02:21:13.254Z,87.00
2017-10-17T02:23:41.341Z,86.98
2017-10-17T02:26:10.229Z,86.99
2017-10-17T02:28:42.801Z,87.01
2017-10-17T02:31:10.971Z,86.98
2017-10-17T02:33:39.092Z,86.98
2017-10-17T02:36:07.535Z,86.98
2017-10-17T02:38:35.990Z,86.99
2017-10-17T02:41:04.888Z,86.99
2017-10-17T02:43:35.386Z,86.99
2017-10-17T02:46:03.767Z,86.99
2017-10-17T02:48:36.302Z,87.00
2017-10-17T02:51:04.665Z,87.00
2017-10-17T02:53:33.071Z,87.03
2017-10-17T02:56:01.230Z,87.01
2017-10-17T02:58:29.356Z,87.01
2017-10-17T03:00:57.502Z,87.03
2017-10-17T03:03:42.059Z,87.03
2017-10-17T03:06:10.323Z,87.04
2017-10-17T03:08:38.661Z,87.03
2017-10-17T03:11:06.862Z,87.03
2017-10-17T03:13:38.539Z,87.03
2017-10-17T03:16:06.965Z,87.03
2017-10-17T03:18:35.094Z,87.02
2017-10-17T03:21:21.575Z,87.05
2017-10-17T03:26:45.845Z,87.04
2017-10-17T03:29:13.975Z,87.08
2017-10-17T03:31:42.371Z,87.10
2017-10-17T03:34:15.179Z,87.10
2017-10-17T03:36:44.690Z,87.10
2017-10-17T03:39:12.833Z,87.08
2017-10-17T03:41:40.924Z,87.09
2017-10-17T03:47:16.011Z,87.05
2017-10-17T03:49:45.736Z,87.08
2017-10-17T03:55:14.006Z,87.11
2017-10-17T03:57:54.859Z,87.17
2017-10-17T04:00:23.282Z,87.15
2017-10-17T04:02:56.133Z,87.17
2017-10-17T04:08:24.323Z,87.13
2017-10-17T04:10:56.839Z,87.17
2017-10-17T04:13:39.840Z,87.16
2017-10-17T04:19:13.307Z,87.14
2017-10-17T04:21:45.216Z,87.19
2017-10-17T04:24:15.015Z,87.17
2017-10-17T04:26:43.162Z,87.17
2017-10-17T04:29:19.655Z,87.17
2017-10-17T04:31:48.663Z,87.20
2017-10-17T04:34:22.576Z,87.23
2017-10-17T04:36:57.202Z,87.23
2017-10-17T04:39:26.006Z,87.24
2017-10-17T04:51:35.816Z,87.33
2017-10-17T04:54:15.466Z,87.36
2017-10-17T04:56:47.228Z,87.36
2017-10-17T05:02:39.320Z,87.40
2017-10-17T05:08:26.801Z,87.51
2017-10-17T05:14:06.894Z,87.45
2017-10-17T05:16:39.143Z,87.44
2017-10-17T05:19:34.908Z,87.52
2017-10-17T05:22:08.295Z,87.45
2017-10-17T05:27:45.554Z,87.54
2017-10-17T05:30:20.344Z,87.58
2017-10-17T05:32:48.486Z,87.50
2017-10-17T05:35:17.522Z,87.48
2017-10-17T05:37:45.692Z,87.49
2017-10-17T05:40:13.784Z,87.49
2017-10-17T05:42:42.420Z,87.54
2017-10-17T05:45:13.946Z,87.70
2017-10-17T05:47:47.434Z,87.56
2017-10-17T05:50:16.302Z,87.52
2017-10-17T05:52:46.384Z,87.51
2017-10-17T05:55:15.061Z,87.51
2017-10-17T05:57:43.689Z,87.46
2017-10-17T06:00:12.378Z,87.51
2017-10-17T06:02:41.060Z,87.43
2017-10-17T06:05:09.689Z,87.41
2017-10-17T06:07:38.350Z,87.48
2017-10-17T06:10:06.974Z,87.46
2017-10-17T06:12:35.632Z,87.49
2017-10-17T06:15:04.141Z,87.58
2017-10-17T06:17:35.247Z,87.58
2017-10-17T06:20:03.911Z,87.54
2017-10-17T06:22:32.579Z,87.58
2017-10-17T06:25:01.070Z,87.48
2017-10-17T06:27:33.343Z,87.42
2017-10-17T06:30:01.994Z,87.39
2017-10-17T06:32:30.617Z,87.36
2017-10-17T06:34:59.268Z,87.34
2017-10-17T06:37:28.956Z,87.34
2017-10-17T06:39:57.620Z,87.31
2017-10-17T06:42:26.282Z,87.28
2017-10-17T06:44:54.951Z,87.36
2017-10-17T06:47:23.650Z,87.37
2017-10-17T06:49:52.363Z,87.38
2017-10-17T06:52:20.679Z,87.35
2017-10-17T06:54:49.371Z,87.35
2017-10-17T06:57:17.699Z,87.41
2017-10-17T06:59:46.400Z,87.36
2017-10-17T07:02:15.046Z,87.40
2017-10-17T07:04:43.701Z,87.33
2017-10-17T07:07:12.257Z,87.26
2017-10-17T07:09:40.894Z,87.20
2017-10-17T07:12:09.574Z,87.21
2017-10-17T07:14:38.242Z,87.16
2017-10-17T07:17:06.851Z,87.13
2017-10-17T07:19:35.323Z,87.04
2017-10-17T07:22:03.975Z,87.09
2017-10-17T07:24:32.487Z,87.05
2017-10-17T07:27:01.055Z,87.00
2017-10-17T07:29:29.543Z,87.01
2017-10-17T07:31:58.191Z,87.02
2017-10-17T07:34:26.490Z,87.01
2017-10-17T07:36:55.159Z,86.99
2017-10-17T07:39:23.799Z,86.99
2017-10-17T07:41:52.492Z,86.97
2017-10-17T07:44:21.122Z,87.03
2017-10-17T07:46:49.506Z,87.04
2017-10-17T07:49:18.122Z,87.04
2017-10-17T07:51:46.620Z,87.02
2017-10-17T07:54:15.156Z,87.04
2017-10-17T07:56:43.631Z,87.09
2017-10-17T07:59:12.300Z,87.15
2017-10-17T08:01:40.796Z,87.19
2017-10-17T08:04:09.280Z,87.20
2017-10-17T08:06:37.505Z,87.26
2017-10-17T08:09:05.679Z,87.20
2017-10-17T08:11:34.233Z,87.17
2017-10-17T08:14:02.702Z,87.20
2017-10-17T08:16:31.366Z,87.11
2017-10-17T08:19:00.022Z,86.94
2017-10-17T08:21:28.683Z,87.14
2017-10-17T08:23:57.294Z,87.13
2017-10-17T08:26:25.647Z,87.10
2017-10-17T08:28:54.261Z,87.04
2017-10-17T08:31:22.928Z,87.08
2017-10-17T08:33:51.550Z,87.12
2017-10-17T08:36:20.219Z,87.11
2017-10-17T08:38:48.755Z,87.12
2017-10-17T08:41:17.442Z,87.15
2017-10-17T08:43:46.076Z,87.23
2017-10-17T08:46:14.755Z,87.12
2017-10-17T08:48:43.416Z,87.17
2017-10-17T08:51:12.086Z,87.20
2017-10-17T08:53:40.582Z,87.30
2017-10-17T08:56:09.183Z,87.24
2017-10-17T08:58:37.834Z,87.27
2017-10-17T09:01:06.351Z,87.30
2017-10-17T09:03:34.841Z,87.11
2017-10-17T09:06:03.327Z,87.13
2017-10-17T09:08:31.988Z,87.15
2017-10-17T09:11:00.606Z,86.88
2017-10-17T09:13:29.271Z,86.93
2017-10-17T09:15:57.891Z,87.21
2017-10-17T09:18:26.398Z,87.31
2017-10-17T09:20:54.910Z,87.19
2017-10-17T09:23:23.423Z,87.16
2017-10-17T09:25:52.047Z,87.23
2017-10-17T09:28:20.694Z,87.21
2017-10-17T09:30:49.320Z,86.93
2017-10-17T09:33:17.979Z,87.17
2017-10-17T09:35:46.610Z,86.85
2017-10-17T09:38:15.241Z,87.00
2017-10-17T09:40:44.020Z,86.94
2017-10-17T09:43:12.631Z,86.98
2017-10-17T09:45:41.287Z,86.87
2017-10-17T09:48:09.908Z,86.91
2017-10-17T09:50:38.574Z,86.43
2017-10-17T09:53:07.188Z,87.00
2017-10-17T09:55:35.838Z,86.65
2017-10-17T09:58:04.526Z,86.84
2017-10-17T10:00:33.173Z,86.72
2017-10-17T10:03:01.819Z,86.57
2017-10-17T10:05:30.315Z,86.54
2017-10-17T10:07:58.615Z,86.65
2017-10-17T10:10:27.252Z,86.90
2017-10-17T10:12:55.947Z,86.96
2017-10-17T10:15:24.579Z,86.25
2017-10-17T10:17:53.270Z,86.24
2017-10-17T10:20:21.940Z,86.65
2017-10-17T10:22:56.822Z,85.92
2017-10-17T10:25:26.011Z,86.39
2017-10-17T10:27:54.644Z,85.83
2017-10-17T10:30:23.261Z,85.74
2017-10-17T10:32:51.923Z,86.22
2017-10-17T10:35:20.542Z,85.57
2017-10-17T10:37:49.227Z,86.36
2017-10-17T10:40:17.852Z,86.02
2017-10-17T10:42:46.534Z,86.40
2017-10-17T10:45:15.157Z,85.90
2017-10-17T10:47:43.775Z,85.46
2017-10-17T10:50:12.423Z,85.84
2017-10-17T10:52:41.066Z,85.87
2017-10-17T10:55:09.683Z,85.49
2017-10-17T10:57:38.365Z,85.11
2017-10-17T11:00:07.027Z,84.80
2017-10-17T11:02:35.657Z,85.05
2017-10-17T11:05:04.283Z,85.25
2017-10-17T11:07:35.803Z,84.90
2017-10-17T11:10:04.479Z,85.48
2017-10-17T11:12:33.098Z,85.44
2017-10-17T11:15:01.756Z,85.35
2017-10-17T11:17:33.802Z,85.63
2017-10-17T11:20:02.462Z,85.47
2017-10-17T11:22:31.089Z,85.34
2017-10-17T11:24:59.753Z,85.53
2017-10-17T11:27:33.051Z,85.33
2017-10-17T11:30:01.578Z,85.31
2017-10-17T11:32:30.246Z,84.49
2017-10-17T11:34:58.896Z,85.20
2017-10-17T11:37:27.575Z,85.01
2017-10-17T11:39:56.187Z,84.97
2017-10-17T11:42:35.713Z,85.38
2017-10-17T11:45:04.386Z,84.62
2017-10-17T11:47:40.375Z,84.32
2017-10-17T11:50:08.875Z,84.93
2017-10-17T11:52:37.499Z,85.36
2017-10-17T11:55:06.187Z,85.56
2017-10-17T11:57:36.219Z,85.70
2017-10-17T12:00:04.948Z,85.24
2017-10-17T12:02:33.567Z,84.37
2017-10-17T12:05:02.294Z,84.76
2017-10-17T12:07:34.846Z,84.72
2017-10-17T12:10:03.539Z,84.71
2017-10-17T12:12:32.193Z,84.88
2017-10-17T12:15:00.731Z,84.74
2017-10-17T12:20:02.448Z,83.77
2017-10-17T12:22:31.118Z,83.85
2017-10-17T12:24:59.869Z,84.43
2017-10-17T12:27:28.541Z,83.73
2017-10-17T12:29:57.220Z,84.21
2017-10-17T12:32:25.897Z,83.80
2017-10-17T12:34:54.543Z,83.72
2017-10-17T12:37:23.212Z,83.45
2017-10-17T12:39:51.885Z,82.36
2017-10-17T12:42:20.547Z,83.40
2017-10-17T12:44:49.181Z,83.82
2017-10-17T12:47:17.843Z,83.92
2017-10-17T12:49:46.356Z,83.23
2017-10-17T12:52:15.006Z,83.81
2017-10-17T12:54:43.627Z,83.62
2017-10-17T12:57:12.303Z,84.21
2017-10-17T12:59:40.821Z,84.41
2017-10-17T13:02:09.350Z,83.81
2017-10-17T13:04:38.018Z,82.81
2017-10-17T13:07:06.206Z,83.09
2017-10-17T13:09:34.836Z,83.44
2017-10-17T13:12:03.355Z,83.47
2017-10-17T13:14:31.867Z,84.07
2017-10-17T13:17:00.398Z,83.91
2017-10-17T13:19:28.619Z,83.47
2017-10-17T13:21:57.151Z,84.05
2017-10-17T13:24:25.779Z,83.78
2017-10-17T13:26:54.138Z,83.85
2017-10-17T13:29:22.800Z,83.74
2017-10-17T13:31:51.488Z,83.94
2017-10-17T13:34:20.150Z,83.83
2017-10-17T13:36:48.654Z,83.49
2017-10-17T13:39:17.311Z,83.17
2017-10-17T13:41:45.935Z,83.72
2017-10-17T13:44:14.615Z,83.64
2017-10-17T13:46:43.226Z,83.58
2017-10-17T13:49:11.855Z,82.91
2017-10-17T13:51:40.511Z,83.54
2017-10-17T13:54:09.150Z,82.17
2017-10-17T13:56:37.805Z,82.66
2017-10-17T13:59:09.898Z,83.04
2017-10-17T14:01:38.563Z,83.08
2017-10-17T14:04:07.185Z,83.07
2017-10-17T14:06:35.858Z,83.63
2017-10-17T14:09:03.856Z,83.16
2017-10-17T14:11:32.463Z,83.18
2017-10-17T14:14:01.134Z,83.41
2017-10-17T14:16:29.766Z,83.83
2017-10-17T14:18:58.424Z,83.56
2017-10-17T14:21:27.135Z,83.35
2017-10-17T14:23:55.606Z,83.82
2017-10-17T14:26:24.147Z,83.98
2017-10-17T14:28:52.545Z,83.90
2017-10-17T14:31:21.212Z,83.62
2017-10-17T14:33:49.825Z,83.90
2017-10-17T14:36:18.462Z,83.89
2017-10-17T14:38:47.146Z,83.93
2017-10-17T14:41:15.778Z,84.10
2017-10-17T14:43:44.453Z,83.79
2017-10-17T14:46:13.057Z,84.19
2017-10-17T14:48:41.671Z,83.71
2017-10-17T14:51:10.322Z,83.87
2017-10-17T14:53:38.942Z,84.04
2017-10-17T14:56:07.604Z,84.24
2017-10-17T14:58:36.226Z,84.38
2017-10-17T15:01:04.903Z,83.90
2017-10-17T15:03:33.536Z,83.86
2017-10-17T15:06:02.208Z,84.17
2017-10-17T15:08:30.892Z,83.30
2017-10-17T15:10:59.365Z,83.83
2017-10-17T15:13:27.918Z,83.88
2017-10-17T15:15:56.384Z,83.63
2017-10-17T15:18:25.032Z,84.03
2017-10-17T15:20:53.693Z,84.00
2017-10-17T15:23:22.332Z,83.81
2017-10-17T15:25:51.011Z,83.66
2017-10-17T15:28:19.642Z,83.48
2017-10-17T15:30:48.297Z,83.75
2017-10-17T15:33:16.911Z,83.79
2017-10-17T15:35:45.523Z,83.64
2017-10-17T15:38:14.191Z,83.33
2017-10-17T15:40:42.815Z,82.61
2017-10-17T15:43:11.502Z,83.55
2017-10-17T15:45:40.124Z,83.83
2017-10-17T15:48:08.807Z,83.26
2017-10-17T15:50:37.496Z,83.19
2017-10-17T15:53:06.116Z,83.60
2017-10-17T15:55:34.775Z,83.45
2017-10-17T15:58:03.409Z,83.40
2017-10-17T16:00:32.107Z,83.46
2017-10-17T16:03:00.728Z,83.51
2017-10-17T16:05:29.344Z,83.66
2017-10-17T16:07:58.004Z,83.63
2017-10-17T16:10:26.613Z,82.96
2017-10-17T16:12:55.268Z,83.36
2017-10-17T16:15:23.926Z,83.55
2017-10-17T16:17:52.599Z,83.38
2017-10-17T16:20:21.304Z,82.82
2017-10-17T16:22:49.915Z,83.43
2017-10-17T16:25:18.580Z,83.12
2017-10-17T16:27:47.226Z,83.14
2017-10-17T16:30:15.902Z,83.12
2017-10-17T16:32:44.534Z,83.34
2017-10-17T16:35:13.195Z,82.69
2017-10-17T16:37:41.671Z,83.35
2017-10-17T16:40:10.295Z,82.94
2017-10-17T16:42:38.961Z,83.14
2017-10-17T16:45:07.572Z,83.07
2017-10-17T16:47:39.087Z,83.37
2017-10-17T16:50:07.567Z,83.11
2017-10-17T16:52:36.243Z,83.34
2017-10-17T16:55:04.935Z,83.33
2017-10-17T16:57:36.885Z,83.36
2017-10-17T17:00:05.403Z,83.39
2017-10-17T17:02:34.066Z,83.42
2017-10-17T17:05:02.559Z,83.47
2017-10-17T17:07:31.042Z,83.54
2017-10-17T17:09:59.586Z,83.55
2017-10-17T17:12:28.211Z,83.41
2017-10-17T17:14:56.871Z,83.36
2017-10-17T17:17:25.483Z,83.19
2017-10-17T17:19:54.098Z,83.25
2017-10-17T17:22:22.799Z,83.04
2017-10-17T17:24:51.470Z,83.09
2017-10-17T17:27:20.094Z,83.25
2017-10-17T17:29:48.564Z,83.24
2017-10-17T17:32:17.215Z,83.28
2017-10-17T17:35:02.306Z,83.17
2017-10-17T17:37:31.945Z,83.26
2017-10-17T17:40:00.557Z,83.22
2017-10-17T17:42:29.218Z,83.26
2017-10-17T17:44:57.829Z,83.29
2017-10-17T17:47:26.453Z,83.25
2017-10-17T17:49:54.794Z,83.30
2017-10-17T17:52:23.468Z,83.32
2017-10-17T17:54:52.112Z,83.29
2017-10-17T17:57:20.768Z,83.26
2017-10-17T17:59:49.412Z,83.35
2017-10-17T18:02:18.094Z,83.37
2017-10-17T18:04:46.712Z,83.23
2017-10-17T18:07:15.367Z,83.28
2017-10-17T18:09:43.986Z,83.29
2017-10-17T18:12:12.637Z,83.33
2017-10-17T18:14:41.123Z,83.36
2017-10-17T18:17:09.640Z,83.35
2017-10-17T18:19:38.270Z,83.40
2017-10-17T18:22:06.946Z,83.38
2017-10-17T18:24:35.581Z,83.30
2017-10-17T18:27:04.238Z,83.36
2017-10-17T18:29:32.862Z,83.40
2017-10-17T18:32:01.527Z,83.41
2017-10-17T18:34:30.150Z,83.48
2017-10-17T18:36:58.759Z,83.54
2017-10-17T18:39:27.432Z,83.52
2017-10-17T18:41:56.053Z,83.58
2017-10-17T18:44:24.710Z,83.54
2017-10-17T18:46:53.323Z,83.48
2017-10-17T18:49:21.974Z,83.56
2017-10-17T18:51:50.596Z,83.54
2017-10-17T18:54:19.249Z,83.54
2017-10-17T18:56:47.742Z,83.59
2017-10-17T18:59:16.279Z,83.62
2017-10-17T19:01:44.803Z,83.67
2017-10-17T19:04:13.475Z,83.69
2017-10-17T19:06:42.095Z,83.67
2017-10-17T19:09:10.773Z,83.72
2017-10-17T19:11:39.395Z,83.74
2017-10-17T19:14:08.063Z,83.72
2017-10-17T19:16:36.679Z,83.74
2017-10-17T19:19:05.311Z,83.77
2017-10-17T19:21:33.975Z,83.78
2017-10-17T19:24:02.594Z,83.80
2017-10-17T19:26:31.266Z,83.83
2017-10-17T19:28:59.895Z,83.84
2017-10-17T19:31:28.564Z,83.84
2017-10-17T19:33:57.235Z,83.81
2017-10-17T19:36:25.864Z,83.85
2017-10-17T19:38:54.403Z,83.92
2017-10-17T19:41:23.134Z,83.89
2017-10-17T19:43:52.161Z,83.94
2017-10-17T19:46:20.773Z,83.92
2017-10-17T19:48:49.389Z,83.94
2017-10-17T19:51:18.055Z,83.95
2017-10-17T19:53:46.673Z,84.00
2017-10-17T19:56:15.343Z,84.04
2017-10-17T19:58:44.023Z,84.05
2017-10-17T20:01:12.695Z,84.09
2017-10-17T20:03:41.307Z,84.07
2017-10-17T20:06:09.921Z,84.09
2017-10-17T20:08:38.575Z,84.12
2017-10-17T20:11:07.215Z,84.18
2017-10-17T20:13:35.878Z,84.21
2017-10-17T20:16:04.553Z,84.19
2017-10-17T20:18:33.216Z,84.15
2017-10-17T20:21:01.930Z,84.15
2017-10-17T20:23:30.558Z,84.23
2017-10-17T20:25:59.234Z,84.23
2017-10-17T20:28:27.716Z,84.23
2017-10-17T20:30:56.227Z,84.29
2017-10-17T20:33:24.721Z,84.28
2017-10-17T20:35:52.908Z,84.22
2017-10-17T20:38:21.573Z,84.30
2017-10-17T20:40:50.197Z,84.35
2017-10-17T20:43:18.875Z,84.34
2017-10-17T20:45:47.495Z,84.30
2017-10-17T20:48:16.106Z,84.38
2017-10-17T20:50:44.778Z,84.43
2017-10-17T20:53:13.435Z,84.46
2017-10-17T20:55:42.057Z,84.45
2017-10-17T20:58:10.570Z,84.42
2017-10-17T21:00:39.222Z,84.39
2017-10-17T21:03:07.754Z,84.52
2017-10-17T21:05:36.384Z,84.50
2017-10-17T21:08:05.080Z,84.47
2017-10-17T21:10:35.442Z,84.47
2017-10-17T21:13:04.665Z,84.52
2017-10-17T21:15:33.320Z,84.51
2017-10-17T21:18:01.943Z,84.51
2017-10-17T21:20:30.609Z,84.58
2017-10-17T21:22:59.223Z,84.59
2017-10-17T21:25:27.891Z,84.65
2017-10-17T21:27:56.516Z,84.60
2017-10-17T21:30:25.201Z,84.69
2017-10-17T21:32:53.852Z,84.67
2017-10-17T21:35:22.515Z,84.63
2017-10-17T21:37:51.161Z,84.70
2017-10-17T21:40:19.782Z,84.71
2017-10-17T21:42:48.447Z,84.74
2017-10-17T21:45:17.054Z,84.73
2017-10-17T21:47:45.719Z,84.74
2017-10-17T21:50:14.335Z,84.73
2017-10-17T21:52:43.015Z,84.78
2017-10-17T21:55:11.646Z,84.80
2017-10-17T21:57:40.249Z,84.82
2017-10-17T22:00:08.931Z,84.82
2017-10-17T22:02:37.401Z,84.80
2017-10-17T22:05:06.068Z,84.85
2017-10-17T22:07:38.027Z,84.90
2017-10-17T22:10:06.705Z,84.91
2017-10-17T22:12:35.323Z,84.93
2017-10-17T22:15:03.989Z,85.00
2017-10-17T22:17:35.743Z,84.93
2017-10-17T22:20:04.374Z,85.00
2017-10-17T22:22:33.052Z,84.96
2017-10-17T22:25:01.677Z,84.98
2017-10-17T22:27:30.362Z,84.95
2017-10-17T22:29:58.990Z,85.03
2017-10-17T22:32:27.627Z,85.06
2017-10-17T22:34:56.310Z,85.03
2017-10-17T22:37:24.929Z,85.08
2017-10-17T22:39:53.583Z,85.11
2017-10-17T22:42:22.194Z,85.06
2017-10-17T22:44:50.866Z,85.06
2017-10-17T22:47:19.483Z,85.12
2017-10-17T22:49:47.970Z,85.12
2017-10-17T22:52:16.635Z,85.06
2017-10-17T22:54:45.266Z,85.12
2017-10-17T22:57:13.892Z,85.12
2017-10-17T22:59:42.546Z,85.18
2017-10-17T23:02:11.209Z,85.18
2017-10-17T23:04:39.877Z,85.21
2017-10-17T23:07:08.342Z,85.24
2017-10-17T23:09:37.000Z,85.19
2017-10-17T23:12:05.651Z,85.26
2017-10-17T23:14:34.300Z,85.26
2017-10-17T23:17:14.092Z,85.26
2017-10-17T23:19:53.947Z,85.28
2017-10-17T23:22:37.923Z,85.31
2017-10-17T23:25:06.611Z,85.31
2017-10-17T23:27:38.050Z,85.39
2017-10-17T23:30:06.756Z,85.29
2017-10-17T23:32:35.379Z,85.33
2017-10-17T23:35:04.037Z,85.39
2017-10-17T23:37:36.337Z,85.41
2017-10-17T23:40:04.854Z,85.37
2017-10-17T23:42:33.327Z,85.40
2017-10-17T23:45:01.993Z,85.43
2017-10-17T23:47:30.630Z,85.44
2017-10-17T23:49:59.304Z,85.36
2017-10-17T23:52:27.914Z,85.42
2017-10-17T23:54:56.563Z,85.45
2017-10-17T23:57:25.224Z,85.44
2017-10-17T23:59:53.851Z,85.50
